createdAt,value
2023-03-04T00:00:02.202Z,11.75
2023-03-04T00:00:16.961Z,11.80
2023-03-04T00:00:50.023Z,13.15
2023-03-04T00:01:08.453Z,12.63
2023-03-04T00:01:21.040Z,12.55
2023-03-04T00:01:33.626Z,12.63
2023-03-04T00:01:47.459Z,11.77
2023-03-04T00:02:00.445Z,11.57
2023-03-04T00:02:13.065Z,12.25
2023-03-04T00:02:26.009Z,12.27
2023-03-04T00:02:39.036Z,12.50
2023-03-04T00:02:51.657Z,12.75
2023-03-04T00:03:04.444Z,12.88
2023-03-04T00:03:17.216Z,12.77
2023-03-04T00:03:31.361Z,12.93
2023-03-04T00:03:44.032Z,13.05
2023-03-04T00:03:56.677Z,12.88
2023-03-04T00:04:09.393Z,12.95
2023-03-04T00:04:22.202Z,11.63
2023-03-04T00:04:34.795Z,9.10
2023-03-04T00:04:47.416Z,9.88
2023-03-04T00:05:00.042Z,11.25
2023-03-04T00:05:13.653Z,11.82
2023-03-04T00:05:26.379Z,12.30
2023-03-04T00:05:39.036Z,12.55
2023-03-04T00:05:51.940Z,12.63
2023-03-04T00:06:05.267Z,12.40
2023-03-04T00:06:17.930Z,12.60
2023-03-04T00:06:30.592Z,13.18
2023-03-04T00:06:44.301Z,12.90
2023-03-04T00:06:56.924Z,11.98
2023-03-04T00:07:09.659Z,11.65
2023-03-04T00:07:22.345Z,12.02
2023-03-04T00:07:35.018Z,12.27
2023-03-04T00:07:47.728Z,12.68
2023-03-04T00:08:00.334Z,12.90
2023-03-04T00:08:13.070Z,12.63
2023-03-04T00:08:25.731Z,11.73
2023-03-04T00:08:39.373Z,11.65
2023-03-04T00:08:51.957Z,13.10
2023-03-04T00:09:04.951Z,13.60
2023-03-04T00:09:19.297Z,13.23
2023-03-04T00:09:32.176Z,13.38
2023-03-04T00:09:45.492Z,13.30
2023-03-04T00:09:58.152Z,12.48
2023-03-04T00:10:13.030Z,12.02
2023-03-04T00:10:25.635Z,12.10
2023-03-04T00:10:38.374Z,12.35
2023-03-04T00:10:51.000Z,12.82
2023-03-04T00:11:03.953Z,11.75
2023-03-04T00:11:16.719Z,11.63
2023-03-04T00:11:29.338Z,12.38
2023-03-04T00:11:42.946Z,12.65
2023-03-04T00:11:55.607Z,12.25
2023-03-04T00:12:08.672Z,11.65
2023-03-04T00:12:21.441Z,11.57
2023-03-04T00:12:34.089Z,11.93
2023-03-04T00:12:46.722Z,11.88
2023-03-04T00:13:00.290Z,11.50
2023-03-04T00:13:13.340Z,11.07
2023-03-04T00:13:26.466Z,11.23
2023-03-04T00:13:39.035Z,11.30
2023-03-04T00:13:52.096Z,10.77
2023-03-04T00:14:04.689Z,11.20
2023-03-04T00:14:17.287Z,11.80
2023-03-04T00:14:30.885Z,11.45
2023-03-04T00:14:43.527Z,11.60
2023-03-04T00:14:56.266Z,11.80
2023-03-04T00:15:09.791Z,11.63
2023-03-04T00:15:22.434Z,11.90
2023-03-04T00:15:35.000Z,12.07
2023-03-04T00:15:48.777Z,12.52
2023-03-04T00:16:01.479Z,12.20
2023-03-04T00:16:14.130Z,11.93
2023-03-04T00:16:27.529Z,10.98
2023-03-04T00:16:40.514Z,10.65
2023-03-04T00:16:53.139Z,11.75
2023-03-04T00:17:07.097Z,11.68
2023-03-04T00:17:20.725Z,12.02
2023-03-04T00:17:33.396Z,12.50
2023-03-04T00:17:46.259Z,12.68
2023-03-04T00:17:58.851Z,12.63
2023-03-04T00:18:11.470Z,12.48
2023-03-04T00:18:24.104Z,12.55
2023-03-04T00:18:37.713Z,12.60
2023-03-04T00:18:50.288Z,12.45
2023-03-04T00:19:03.135Z,11.88
2023-03-04T00:19:15.958Z,12.10
2023-03-04T00:19:28.553Z,12.63
2023-03-04T00:19:41.193Z,12.50
2023-03-04T00:19:53.856Z,12.50
2023-03-04T00:20:08.902Z,12.05
2023-03-04T00:20:21.873Z,11.82
2023-03-04T00:20:34.640Z,11.75
2023-03-04T00:20:47.462Z,11.82
2023-03-04T00:21:00.048Z,11.50
2023-03-04T00:21:12.654Z,11.48
2023-03-04T00:21:25.315Z,11.45
2023-03-04T00:21:38.043Z,11.82
2023-03-04T00:21:51.654Z,11.75
2023-03-04T00:22:04.691Z,11.90
2023-03-04T00:22:17.300Z,11.52
2023-03-04T00:22:29.912Z,11.48
2023-03-04T00:22:42.510Z,12.15
2023-03-04T00:22:55.092Z,12.07
2023-03-04T00:23:08.190Z,12.10
2023-03-04T00:23:21.886Z,12.20
2023-03-04T00:23:34.816Z,11.77
2023-03-04T00:23:47.464Z,12.15
2023-03-04T00:24:00.783Z,13.05
2023-03-04T00:24:13.414Z,12.85
2023-03-04T00:24:27.427Z,12.88
2023-03-04T00:24:40.082Z,12.75
2023-03-04T00:24:53.687Z,12.68
2023-03-04T00:25:07.278Z,12.95
2023-03-04T00:25:20.059Z,12.63
2023-03-04T00:25:33.636Z,12.07
2023-03-04T00:25:46.311Z,11.70
2023-03-04T00:25:58.967Z,12.05
2023-03-04T00:26:13.330Z,12.25
2023-03-04T00:26:26.058Z,12.25
2023-03-04T00:26:39.611Z,12.35
2023-03-04T00:26:52.312Z,12.70
2023-03-04T00:27:04.881Z,12.45
2023-03-04T00:27:17.450Z,12.25
2023-03-04T00:27:30.045Z,12.43
2023-03-04T00:27:42.625Z,12.88
2023-03-04T00:27:55.536Z,12.45
2023-03-04T00:28:08.170Z,12.30
2023-03-04T00:28:21.819Z,12.43
2023-03-04T00:28:34.461Z,12.80
2023-03-04T00:28:47.129Z,12.63
2023-03-04T00:28:59.762Z,12.13
2023-03-04T00:29:12.509Z,11.65
2023-03-04T00:29:25.145Z,11.55
2023-03-04T00:29:38.993Z,12.75
2023-03-04T00:29:51.643Z,13.55
2023-03-04T00:30:05.395Z,13.70
2023-03-04T00:30:18.234Z,13.30
2023-03-04T00:30:30.870Z,12.95
2023-03-04T00:30:43.497Z,12.55
2023-03-04T00:30:56.153Z,12.07
2023-03-04T00:31:10.436Z,12.13
2023-03-04T00:31:23.153Z,12.25
2023-03-04T00:31:36.136Z,12.48
2023-03-04T00:31:48.898Z,13.00
2023-03-04T00:32:01.785Z,13.48
2023-03-04T00:32:16.228Z,13.75
2023-03-04T00:32:29.605Z,13.18
2023-03-04T00:32:42.240Z,12.40
2023-03-04T00:32:55.894Z,12.40
2023-03-04T00:33:08.578Z,12.88
2023-03-04T00:33:21.210Z,13.05
2023-03-04T00:33:33.996Z,12.95
2023-03-04T00:33:46.597Z,12.73
2023-03-04T00:33:59.219Z,13.00
2023-03-04T00:34:11.803Z,13.10
2023-03-04T00:34:24.433Z,13.13
2023-03-04T00:34:38.108Z,12.60
2023-03-04T00:34:50.845Z,12.55
2023-03-04T00:35:03.652Z,12.50
2023-03-04T00:35:16.869Z,11.55
2023-03-04T00:35:29.545Z,11.07
2023-03-04T00:35:42.433Z,12.23
2023-03-04T00:35:55.096Z,13.23
2023-03-04T00:36:09.458Z,12.85
2023-03-04T00:36:22.253Z,12.85
2023-03-04T00:36:34.830Z,13.02
2023-03-04T00:36:47.580Z,12.60
2023-03-04T00:37:01.660Z,12.50
2023-03-04T00:37:14.634Z,12.43
2023-03-04T00:37:28.274Z,12.60
2023-03-04T00:37:40.891Z,12.60
2023-03-04T00:37:53.674Z,12.88
2023-03-04T00:38:06.374Z,13.77
2023-03-04T00:38:19.007Z,13.75
2023-03-04T00:38:31.696Z,13.82
2023-03-04T00:38:45.316Z,12.25
2023-03-04T00:38:58.268Z,10.45
2023-03-04T00:39:11.385Z,11.93
2023-03-04T00:39:24.003Z,12.82
2023-03-04T00:39:38.002Z,13.23
2023-03-04T00:39:50.607Z,13.27
2023-03-04T00:40:03.496Z,12.90
2023-03-04T00:40:17.114Z,11.45
2023-03-04T00:40:29.732Z,10.88
2023-03-04T00:40:42.313Z,10.35
2023-03-04T00:40:55.127Z,10.75
2023-03-04T00:41:07.724Z,10.55
2023-03-04T00:41:20.338Z,10.85
2023-03-04T00:41:32.930Z,11.07
2023-03-04T00:41:45.555Z,11.85
2023-03-04T00:41:59.142Z,12.02
2023-03-04T00:42:11.756Z,12.43
2023-03-04T00:42:24.640Z,12.80
2023-03-04T00:42:37.282Z,12.77
2023-03-04T00:42:50.194Z,12.73
2023-03-04T00:43:03.278Z,13.05
2023-03-04T00:43:16.898Z,12.70
2023-03-04T00:43:30.006Z,12.35
2023-03-04T00:43:42.628Z,12.00
2023-03-04T00:43:55.235Z,12.90
2023-03-04T00:44:07.938Z,13.15
2023-03-04T00:44:20.643Z,12.48
2023-03-04T00:44:34.419Z,12.13
2023-03-04T00:44:47.042Z,12.55
2023-03-04T00:44:59.634Z,12.65
2023-03-04T00:45:12.402Z,11.85
2023-03-04T00:45:25.118Z,12.02
2023-03-04T00:45:37.718Z,12.18
2023-03-04T00:45:50.445Z,12.18
2023-03-04T00:46:03.166Z,12.00
2023-03-04T00:46:16.904Z,12.15
2023-03-04T00:46:29.814Z,12.50
2023-03-04T00:46:42.415Z,12.60
2023-03-04T00:46:55.014Z,11.90
2023-03-04T00:47:07.618Z,11.93
2023-03-04T00:47:20.420Z,12.27
2023-03-04T00:47:33.052Z,13.00
2023-03-04T00:47:45.642Z,12.98
2023-03-04T00:47:59.258Z,12.93
2023-03-04T00:48:11.987Z,12.63
2023-03-04T00:48:24.774Z,12.80
2023-03-04T00:48:38.652Z,12.57
2023-03-04T00:48:51.220Z,12.15
2023-03-04T00:49:04.222Z,12.35
2023-03-04T00:49:16.794Z,12.05
2023-03-04T00:49:29.397Z,12.18
2023-03-04T00:49:43.003Z,12.10
2023-03-04T00:49:55.643Z,12.73
2023-03-04T00:50:10.215Z,11.93
2023-03-04T00:50:22.837Z,12.25
2023-03-04T00:50:35.466Z,13.20
2023-03-04T00:50:49.098Z,13.23
2023-03-04T00:51:01.717Z,13.18
2023-03-04T00:51:15.388Z,13.00
2023-03-04T00:51:28.053Z,12.35
2023-03-04T00:51:40.684Z,12.60
2023-03-04T00:51:53.332Z,13.02
2023-03-04T00:52:06.122Z,12.85
2023-03-04T00:52:18.721Z,13.00
2023-03-04T00:52:31.341Z,13.05
2023-03-04T00:52:44.015Z,12.57
2023-03-04T00:52:57.803Z,12.50
2023-03-04T00:53:10.857Z,12.85
2023-03-04T00:53:24.119Z,12.68
2023-03-04T00:53:36.949Z,12.50
2023-03-04T00:53:49.895Z,12.77
2023-03-04T00:54:04.040Z,13.02
2023-03-04T00:54:16.656Z,12.70
2023-03-04T00:54:29.271Z,12.77
2023-03-04T00:54:43.395Z,12.82
2023-03-04T00:54:56.210Z,12.57
2023-03-04T00:55:09.633Z,12.73
2023-03-04T00:55:22.274Z,13.25
2023-03-04T00:55:34.844Z,13.30
2023-03-04T00:55:48.470Z,13.35
2023-03-04T00:56:01.076Z,13.52
2023-03-04T00:56:13.780Z,13.23
2023-03-04T00:56:26.345Z,12.70
2023-03-04T00:56:38.956Z,12.18
2023-03-04T00:56:51.747Z,12.32
2023-03-04T00:57:04.340Z,12.90
2023-03-04T00:57:16.968Z,13.07
2023-03-04T00:57:30.558Z,12.38
2023-03-04T00:57:43.430Z,12.10
2023-03-04T00:57:56.090Z,12.23
2023-03-04T00:58:08.668Z,12.25
2023-03-04T00:58:21.258Z,12.88
2023-03-04T00:58:33.931Z,13.20
2023-03-04T00:58:47.497Z,13.30
2023-03-04T00:59:00.097Z,13.02
2023-03-04T00:59:12.677Z,12.82
2023-03-04T00:59:25.305Z,13.00
2023-03-04T00:59:37.922Z,13.15
2023-03-04T00:59:51.131Z,12.48
2023-03-04T01:00:05.249Z,12.13
2023-03-04T01:00:18.608Z,11.85
2023-03-04T01:00:32.229Z,12.45
2023-03-04T01:00:44.868Z,13.35
2023-03-04T01:00:57.499Z,13.55
2023-03-04T01:01:10.120Z,13.45
2023-03-04T01:01:23.431Z,12.75
2023-03-04T01:01:36.174Z,12.75
2023-03-04T01:01:49.804Z,12.45
2023-03-04T01:02:02.474Z,12.65
2023-03-04T01:02:15.225Z,13.13
2023-03-04T01:02:27.971Z,13.65
2023-03-04T01:02:40.676Z,13.40
2023-03-04T01:02:53.370Z,13.45
2023-03-04T01:03:07.010Z,13.45
2023-03-04T01:03:19.641Z,12.88
2023-03-04T01:03:33.216Z,12.68
2023-03-04T01:03:45.858Z,13.68
2023-03-04T01:03:58.475Z,14.45
2023-03-04T01:04:11.079Z,14.18
2023-03-04T01:04:23.778Z,13.68
2023-03-04T01:04:37.102Z,13.77
2023-03-04T01:04:50.732Z,13.60
2023-03-04T01:05:03.854Z,13.15
2023-03-04T01:05:17.152Z,12.63
2023-03-04T01:05:29.891Z,12.68
2023-03-04T01:05:42.534Z,13.02
2023-03-04T01:05:55.165Z,13.32
2023-03-04T01:06:08.030Z,13.40
2023-03-04T01:06:20.797Z,12.70
2023-03-04T01:06:34.715Z,12.18
2023-03-04T01:06:47.343Z,12.82
2023-03-04T01:06:59.935Z,13.20
2023-03-04T01:07:12.537Z,13.32
2023-03-04T01:07:25.408Z,13.40
2023-03-04T01:07:38.292Z,12.82
2023-03-04T01:07:51.894Z,12.98
2023-03-04T01:08:05.347Z,13.55
2023-03-04T01:08:17.964Z,13.50
2023-03-04T01:08:30.546Z,13.25
2023-03-04T01:08:43.592Z,11.68
2023-03-04T01:08:56.571Z,11.10
2023-03-04T01:09:10.233Z,12.63
2023-03-04T01:09:22.992Z,13.45
2023-03-04T01:09:35.629Z,13.23
2023-03-04T01:09:49.588Z,13.25
2023-03-04T01:10:02.317Z,13.18
2023-03-04T01:10:15.679Z,12.77
2023-03-04T01:10:28.494Z,12.68
2023-03-04T01:10:41.133Z,12.45
2023-03-04T01:10:54.785Z,13.10
2023-03-04T01:11:07.594Z,13.20
2023-03-04T01:11:20.180Z,12.85
2023-03-04T01:11:32.800Z,13.02
2023-03-04T01:11:45.427Z,13.45
2023-03-04T01:11:58.331Z,13.20
2023-03-04T01:12:10.962Z,12.93
2023-03-04T01:12:23.577Z,13.07
2023-03-04T01:12:37.248Z,13.40
2023-03-04T01:12:50.140Z,13.55
2023-03-04T01:13:02.900Z,13.10
2023-03-04T01:13:15.545Z,12.80
2023-03-04T01:13:28.128Z,12.40
2023-03-04T01:13:40.759Z,12.27
2023-03-04T01:13:54.333Z,12.50
2023-03-04T01:14:07.134Z,12.98
2023-03-04T01:14:19.756Z,12.82
2023-03-04T01:14:32.542Z,12.70
2023-03-04T01:14:45.194Z,12.65
2023-03-04T01:14:57.886Z,12.77
2023-03-04T01:15:12.172Z,12.70
2023-03-04T01:15:25.939Z,13.25
2023-03-04T01:15:38.553Z,12.73
2023-03-04T01:15:51.203Z,11.70
2023-03-04T01:16:05.162Z,12.27
2023-03-04T01:16:18.740Z,13.35
2023-03-04T01:16:31.387Z,13.43
2023-03-04T01:16:45.424Z,12.63
2023-03-04T01:16:58.214Z,11.52
2023-03-04T01:17:12.227Z,11.52
2023-03-04T01:17:24.916Z,12.57
2023-03-04T01:17:37.571Z,12.52
2023-03-04T01:17:50.380Z,12.23
2023-03-04T01:18:03.177Z,12.13
2023-03-04T01:18:15.902Z,12.82
2023-03-04T01:18:29.620Z,13.38
2023-03-04T01:18:42.381Z,13.65
2023-03-04T01:18:54.999Z,13.73
2023-03-04T01:19:07.622Z,13.18
2023-03-04T01:19:20.255Z,13.27
2023-03-04T01:19:32.900Z,13.70
2023-03-04T01:19:46.737Z,13.73
2023-03-04T01:19:59.423Z,13.35
2023-03-04T01:20:12.794Z,13.30
2023-03-04T01:20:25.755Z,13.57
2023-03-04T01:20:38.360Z,14.13
2023-03-04T01:20:51.153Z,14.35
2023-03-04T01:21:04.322Z,14.43
2023-03-04T01:21:17.915Z,14.23
2023-03-04T01:21:30.949Z,13.98
2023-03-04T01:21:43.689Z,13.75
2023-03-04T01:21:56.313Z,14.05
2023-03-04T01:22:10.799Z,13.38
2023-03-04T01:22:23.418Z,13.43
2023-03-04T01:22:36.214Z,13.48
2023-03-04T01:22:49.869Z,12.75
2023-03-04T01:23:02.535Z,13.20
2023-03-04T01:23:15.188Z,13.70
2023-03-04T01:23:27.929Z,13.73
2023-03-04T01:23:40.530Z,13.27
2023-03-04T01:23:53.132Z,13.05
2023-03-04T01:24:06.454Z,12.85
2023-03-04T01:24:19.321Z,13.00
2023-03-04T01:24:31.982Z,13.32
2023-03-04T01:24:45.620Z,13.52
2023-03-04T01:24:59.622Z,13.27
2023-03-04T01:25:12.297Z,12.68
2023-03-04T01:25:24.924Z,12.63
2023-03-04T01:25:37.559Z,12.23
2023-03-04T01:25:50.176Z,12.55
2023-03-04T01:26:03.780Z,12.95
2023-03-04T01:26:16.356Z,12.40
2023-03-04T01:26:28.981Z,12.05
2023-03-04T01:26:41.581Z,12.57
2023-03-04T01:26:54.187Z,12.77
2023-03-04T01:27:07.020Z,12.73
2023-03-04T01:27:19.674Z,13.07
2023-03-04T01:27:32.493Z,13.43
2023-03-04T01:27:46.107Z,12.93
2023-03-04T01:27:59.033Z,13.02
2023-03-04T01:28:11.689Z,13.38
2023-03-04T01:28:24.407Z,13.38
2023-03-04T01:28:37.011Z,12.88
2023-03-04T01:28:49.605Z,13.02
2023-03-04T01:29:03.729Z,13.20
2023-03-04T01:29:17.478Z,13.27
2023-03-04T01:29:30.388Z,13.43
2023-03-04T01:29:43.091Z,14.02
2023-03-04T01:29:55.723Z,12.38
2023-03-04T01:30:09.643Z,11.10
2023-03-04T01:30:23.233Z,10.70
2023-03-04T01:30:35.845Z,10.75
2023-03-04T01:30:48.503Z,11.77
2023-03-04T01:31:01.199Z,13.25
2023-03-04T01:31:13.921Z,12.90
2023-03-04T01:31:26.933Z,12.48
2023-03-04T01:31:39.565Z,13.07
2023-03-04T01:31:52.420Z,13.45
2023-03-04T01:32:06.841Z,12.35
2023-03-04T01:32:19.545Z,10.35
2023-03-04T01:32:32.228Z,9.77
2023-03-04T01:32:44.871Z,11.43
2023-03-04T01:32:57.547Z,12.15
2023-03-04T01:33:10.193Z,12.55
2023-03-04T01:33:22.776Z,12.35
2023-03-04T01:33:35.374Z,11.95
2023-03-04T01:33:48.970Z,12.10
2023-03-04T01:34:01.763Z,12.75
2023-03-04T01:34:14.623Z,12.82
2023-03-04T01:34:27.213Z,12.85
2023-03-04T01:34:39.862Z,12.65
2023-03-04T01:34:52.530Z,12.70
2023-03-04T01:35:06.986Z,12.80
2023-03-04T01:35:19.637Z,12.95
2023-03-04T01:35:32.982Z,13.02
2023-03-04T01:35:45.776Z,12.88
2023-03-04T01:35:58.552Z,13.35
2023-03-04T01:36:11.479Z,13.30
2023-03-04T01:36:24.118Z,13.07
2023-03-04T01:36:37.753Z,12.15
2023-03-04T01:36:50.380Z,11.48
2023-03-04T01:37:03.090Z,11.07
2023-03-04T01:37:15.793Z,11.85
2023-03-04T01:37:28.433Z,11.40
2023-03-04T01:37:41.144Z,12.48
2023-03-04T01:37:54.776Z,12.50
2023-03-04T01:38:07.446Z,12.43
2023-03-04T01:38:20.216Z,12.45
2023-03-04T01:38:32.896Z,12.57
2023-03-04T01:38:45.506Z,12.25
2023-03-04T01:38:58.383Z,12.15
2023-03-04T01:39:11.227Z,11.70
2023-03-04T01:39:23.802Z,11.68
2023-03-04T01:39:37.430Z,11.98
2023-03-04T01:39:50.050Z,11.90
2023-03-04T01:40:05.526Z,11.55
2023-03-04T01:40:18.281Z,11.70
2023-03-04T01:40:31.212Z,11.95
2023-03-04T01:40:44.131Z,11.35
2023-03-04T01:40:57.905Z,11.40
2023-03-04T01:41:12.713Z,11.73
2023-03-04T01:41:26.771Z,11.63
2023-03-04T01:41:39.570Z,11.40
2023-03-04T01:41:52.335Z,11.90
2023-03-04T01:42:05.230Z,12.50
2023-03-04T01:42:20.699Z,12.25
2023-03-04T01:42:36.036Z,11.55
2023-03-04T01:42:48.884Z,12.05
2023-03-04T01:43:01.657Z,12.57
2023-03-04T01:43:22.787Z,12.93
2023-03-04T01:43:37.067Z,11.88
2023-03-04T01:43:49.772Z,11.95
2023-03-04T01:44:02.873Z,11.60
2023-03-04T01:44:15.824Z,10.60
2023-03-04T01:44:28.687Z,9.98
2023-03-04T01:44:42.556Z,9.93
2023-03-04T01:44:55.213Z,11.05
2023-03-04T01:45:13.907Z,12.10
2023-03-04T01:45:27.072Z,12.20
2023-03-04T01:45:40.357Z,11.95
2023-03-04T01:45:55.070Z,11.82
2023-03-04T01:46:09.012Z,11.95
2023-03-04T01:46:22.040Z,12.02
2023-03-04T01:46:34.816Z,11.93
2023-03-04T01:46:50.494Z,12.13
2023-03-04T01:47:03.196Z,11.93
2023-03-04T01:47:16.566Z,11.77
2023-03-04T01:47:31.478Z,12.02
2023-03-04T01:47:48.516Z,12.15
2023-03-04T01:48:02.126Z,11.45
2023-03-04T01:48:18.618Z,11.63
2023-03-04T01:48:34.189Z,12.05
2023-03-04T01:48:46.880Z,11.65
2023-03-04T01:49:00.401Z,11.38
2023-03-04T01:49:14.675Z,11.70
2023-03-04T01:49:28.275Z,12.10
2023-03-04T01:49:41.341Z,11.63
2023-03-04T01:49:56.200Z,11.48
2023-03-04T01:50:17.986Z,11.77
2023-03-04T01:50:34.114Z,11.73
2023-03-04T01:50:47.043Z,11.85
2023-03-04T01:51:03.138Z,12.38
2023-03-04T01:51:18.917Z,10.98
2023-03-04T01:51:31.567Z,10.20
2023-03-04T01:51:49.331Z,11.20
2023-03-04T01:52:01.934Z,11.80
2023-03-04T01:52:14.860Z,11.77
2023-03-04T01:52:28.009Z,11.63
2023-03-04T01:52:43.026Z,11.30
2023-03-04T01:52:55.677Z,10.95
2023-03-04T01:53:17.925Z,11.18
2023-03-04T01:53:31.550Z,11.07
2023-03-04T01:53:45.319Z,10.90
2023-03-04T01:53:57.910Z,11.13
2023-03-04T01:54:11.604Z,11.30
2023-03-04T01:54:24.478Z,11.23
2023-03-04T01:54:37.224Z,11.00
2023-03-04T01:54:50.171Z,11.07
2023-03-04T01:55:07.387Z,11.27
2023-03-04T01:55:23.951Z,11.05
2023-03-04T01:55:36.559Z,11.20
2023-03-04T01:55:49.381Z,11.52
2023-03-04T01:56:11.072Z,11.50
2023-03-04T01:56:26.392Z,11.30
2023-03-04T01:56:40.261Z,10.15
2023-03-04T01:56:54.290Z,9.88
2023-03-04T01:57:17.470Z,11.02
2023-03-04T01:57:35.586Z,10.25
2023-03-04T01:57:50.092Z,9.18
2023-03-04T01:58:05.898Z,10.48
2023-03-04T01:58:19.695Z,10.85
2023-03-04T01:58:33.880Z,9.57
2023-03-04T01:59:06.483Z,9.70
2023-03-04T01:59:20.700Z,11.43
2023-03-04T01:59:33.396Z,11.57
2023-03-04T01:59:47.258Z,11.38
2023-03-04T02:00:20.864Z,11.15
2023-03-04T02:00:35.152Z,11.32
2023-03-04T02:00:47.936Z,11.32
2023-03-04T02:01:00.685Z,11.48
2023-03-04T02:01:14.418Z,11.30
2023-03-04T02:01:27.079Z,11.48
2023-03-04T02:01:43.103Z,11.68
2023-03-04T02:01:57.323Z,11.52
2023-03-04T02:02:10.316Z,11.50
2023-03-04T02:02:23.465Z,11.48
2023-03-04T02:02:36.206Z,11.30
2023-03-04T02:02:52.757Z,11.18
2023-03-04T02:03:08.514Z,11.68
2023-03-04T02:03:21.262Z,11.80
2023-03-04T02:03:34.004Z,11.77
2023-03-04T02:03:46.591Z,11.98
2023-03-04T02:03:59.667Z,11.65
2023-03-04T02:04:13.006Z,11.75
2023-03-04T02:04:29.563Z,11.88
2023-03-04T02:04:43.084Z,11.73
2023-03-04T02:04:55.739Z,11.45
2023-03-04T02:05:08.683Z,11.88
2023-03-04T02:05:22.664Z,12.32
2023-03-04T02:05:37.277Z,11.65
2023-03-04T02:05:53.074Z,11.32
2023-03-04T02:06:06.330Z,11.68
2023-03-04T02:06:18.924Z,11.02
2023-03-04T02:06:31.839Z,11.35
2023-03-04T02:06:46.095Z,11.82
2023-03-04T02:07:00.945Z,11.80
2023-03-04T02:07:13.582Z,11.63
2023-03-04T02:07:26.260Z,11.65
2023-03-04T02:07:38.972Z,11.70
2023-03-04T02:07:54.105Z,11.50
2023-03-04T02:08:07.836Z,11.80
2023-03-04T02:08:22.850Z,11.90
2023-03-04T02:08:35.942Z,11.60
2023-03-04T02:08:48.564Z,11.73
2023-03-04T02:09:01.239Z,11.93
2023-03-04T02:09:15.274Z,11.30
2023-03-04T02:09:29.853Z,11.30
2023-03-04T02:09:42.578Z,11.95
2023-03-04T02:09:55.558Z,12.10
2023-03-04T02:10:12.028Z,11.82
2023-03-04T02:10:25.092Z,11.68
2023-03-04T02:10:38.694Z,12.07
2023-03-04T02:10:53.185Z,12.25
2023-03-04T02:11:06.062Z,12.40
2023-03-04T02:11:18.667Z,12.55
2023-03-04T02:11:31.688Z,12.77
2023-03-04T02:11:45.655Z,12.65
2023-03-04T02:11:58.821Z,12.32
2023-03-04T02:12:12.513Z,12.05
2023-03-04T02:12:25.132Z,12.30
2023-03-04T02:12:38.354Z,12.27
2023-03-04T02:12:51.259Z,11.48
2023-03-04T02:13:04.273Z,11.57
2023-03-04T02:13:18.111Z,11.40
2023-03-04T02:13:33.230Z,11.07
2023-03-04T02:13:46.137Z,11.23
2023-03-04T02:13:59.594Z,11.45
2023-03-04T02:14:13.218Z,11.68
2023-03-04T02:14:26.108Z,11.73
2023-03-04T02:14:39.477Z,11.95
2023-03-04T02:14:53.132Z,12.45
2023-03-04T02:15:07.176Z,12.90
2023-03-04T02:15:20.034Z,12.63
2023-03-04T02:15:32.793Z,12.45
2023-03-04T02:15:46.804Z,12.48
2023-03-04T02:15:59.438Z,12.50
2023-03-04T02:16:12.179Z,12.10
2023-03-04T02:16:24.883Z,11.75
2023-03-04T02:16:38.879Z,10.80
2023-03-04T02:16:51.824Z,10.57
2023-03-04T02:17:10.600Z,10.65
2023-03-04T02:17:25.290Z,11.07
2023-03-04T02:17:38.154Z,12.35
2023-03-04T02:17:51.854Z,12.45
2023-03-04T02:18:12.938Z,11.88
2023-03-04T02:18:25.601Z,11.32
2023-03-04T02:18:38.179Z,11.70
2023-03-04T02:18:51.439Z,11.77
2023-03-04T02:19:07.633Z,12.05
2023-03-04T02:19:28.706Z,12.00
2023-03-04T02:19:51.152Z,12.07
2023-03-04T02:20:09.429Z,11.57
2023-03-04T02:20:33.294Z,11.07
2023-03-04T02:20:58.029Z,11.80
2023-03-04T02:21:18.956Z,11.48
2023-03-04T02:21:34.276Z,9.55
2023-03-04T02:21:47.079Z,10.52
2023-03-04T02:21:59.750Z,11.77
2023-03-04T02:22:12.418Z,11.55
2023-03-04T02:22:25.043Z,11.88
2023-03-04T02:22:40.456Z,12.05
2023-03-04T02:23:01.838Z,11.82
2023-03-04T02:23:19.665Z,11.05
2023-03-04T02:23:38.492Z,11.15
2023-03-04T02:23:57.946Z,11.18
2023-03-04T02:24:15.853Z,12.18
2023-03-04T02:24:35.301Z,11.30
2023-03-04T02:24:54.388Z,12.20
2023-03-04T02:25:13.745Z,12.57
2023-03-04T02:25:31.945Z,12.00
2023-03-04T02:25:49.013Z,11.57
2023-03-04T02:26:18.786Z,12.23
2023-03-04T02:26:32.844Z,11.80
2023-03-04T02:26:47.011Z,11.35
2023-03-04T02:26:59.984Z,11.80
2023-03-04T02:27:12.849Z,12.07
2023-03-04T02:27:25.566Z,11.85
2023-03-04T02:27:38.170Z,11.57
2023-03-04T02:27:50.823Z,11.25
2023-03-04T02:28:04.708Z,11.98
2023-03-04T02:28:17.500Z,12.43
2023-03-04T02:28:30.134Z,12.35
2023-03-04T02:28:43.554Z,12.70
2023-03-04T02:28:58.570Z,11.63
2023-03-04T02:29:12.481Z,10.07
2023-03-04T02:29:26.427Z,10.52
2023-03-04T02:29:39.155Z,11.52
2023-03-04T02:29:51.851Z,12.18
2023-03-04T02:30:05.614Z,12.05
2023-03-04T02:30:23.743Z,11.75
2023-03-04T02:30:36.570Z,11.55
2023-03-04T02:30:50.192Z,11.77
2023-03-04T02:31:02.906Z,12.10
2023-03-04T02:31:24.256Z,12.27
2023-03-04T02:31:39.262Z,11.63
2023-03-04T02:31:53.678Z,11.25
2023-03-04T02:32:06.494Z,11.27
2023-03-04T02:32:20.329Z,10.80
2023-03-04T02:32:33.145Z,11.30
2023-03-04T02:32:45.728Z,11.40
2023-03-04T02:32:58.435Z,10.32
2023-03-04T02:33:15.802Z,10.70
2023-03-04T02:33:28.399Z,11.75
2023-03-04T02:33:42.040Z,11.45
2023-03-04T02:33:57.780Z,11.43
2023-03-04T02:34:13.730Z,11.82
2023-03-04T02:34:29.790Z,11.70
2023-03-04T02:34:47.245Z,10.88
2023-03-04T02:34:59.948Z,10.65
2023-03-04T02:35:18.606Z,10.80
2023-03-04T02:35:31.432Z,11.73
2023-03-04T02:35:44.243Z,12.10
2023-03-04T02:35:56.934Z,11.95
2023-03-04T02:36:10.298Z,11.90
2023-03-04T02:36:23.867Z,11.45
2023-03-04T02:36:37.378Z,11.38
2023-03-04T02:36:53.481Z,11.63
2023-03-04T02:37:07.149Z,10.98
2023-03-04T02:37:21.664Z,10.73
2023-03-04T02:37:34.272Z,11.02
2023-03-04T02:37:47.022Z,11.43
2023-03-04T02:37:59.662Z,11.57
2023-03-04T02:38:12.498Z,11.52
2023-03-04T02:38:26.385Z,11.68
2023-03-04T02:38:39.068Z,12.18
2023-03-04T02:38:53.438Z,12.02
2023-03-04T02:39:11.515Z,11.70
2023-03-04T02:39:31.342Z,11.55
2023-03-04T02:39:46.217Z,11.77
2023-03-04T02:39:59.984Z,12.00
2023-03-04T02:40:16.550Z,12.00
2023-03-04T02:40:33.505Z,11.63
2023-03-04T02:40:50.386Z,11.75
2023-03-04T02:41:03.531Z,11.48
2023-03-04T02:41:21.978Z,11.10
2023-03-04T02:41:35.047Z,11.52
2023-03-04T02:41:49.262Z,11.48
2023-03-04T02:42:03.715Z,10.95
2023-03-04T02:42:16.476Z,11.55
2023-03-04T02:42:29.078Z,11.82
2023-03-04T02:42:44.310Z,11.60
2023-03-04T02:42:59.651Z,11.52
2023-03-04T02:43:12.739Z,11.23
2023-03-04T02:43:26.333Z,11.32
2023-03-04T02:43:38.978Z,11.27
2023-03-04T02:43:53.965Z,11.10
2023-03-04T02:44:16.576Z,10.90
2023-03-04T02:44:30.805Z,11.20
2023-03-04T02:44:48.387Z,11.18
2023-03-04T02:45:02.219Z,11.23
2023-03-04T02:45:40.939Z,11.88
2023-03-04T02:45:53.575Z,11.10
2023-03-04T02:46:07.261Z,10.65
2023-03-04T02:46:20.621Z,10.13
2023-03-04T02:46:34.239Z,10.43
2023-03-04T02:46:47.738Z,11.07
2023-03-04T02:47:01.244Z,11.45
2023-03-04T02:47:17.804Z,11.13
2023-03-04T02:47:30.437Z,10.60
2023-03-04T02:47:43.007Z,10.23
2023-03-04T02:47:55.613Z,10.70
2023-03-04T02:48:09.950Z,11.52
2023-03-04T02:48:24.083Z,11.30
2023-03-04T02:48:36.693Z,11.32
2023-03-04T02:48:49.497Z,11.45
2023-03-04T02:49:02.369Z,11.20
2023-03-04T02:49:15.415Z,11.13
2023-03-04T02:49:31.368Z,10.85
2023-03-04T02:49:44.133Z,10.98
2023-03-04T02:49:56.889Z,11.55
2023-03-04T02:50:10.969Z,11.52
2023-03-04T02:50:24.173Z,11.50
2023-03-04T02:50:41.043Z,11.50
2023-03-04T02:50:55.621Z,11.35
2023-03-04T02:51:08.252Z,11.02
2023-03-04T02:51:21.037Z,10.52
2023-03-04T02:51:33.693Z,10.48
2023-03-04T02:51:46.551Z,10.15
2023-03-04T02:52:01.522Z,9.73
2023-03-04T02:52:17.480Z,9.70
2023-03-04T02:52:31.050Z,10.77
2023-03-04T02:52:43.933Z,10.57
2023-03-04T02:52:56.522Z,10.50
2023-03-04T02:53:09.186Z,10.60
2023-03-04T02:53:22.513Z,10.95
2023-03-04T02:53:35.132Z,11.68
2023-03-04T02:53:48.736Z,11.40
2023-03-04T02:54:01.505Z,10.35
2023-03-04T02:54:17.989Z,10.13
2023-03-04T02:54:30.888Z,10.55
2023-03-04T02:54:43.623Z,10.63
2023-03-04T02:54:56.241Z,10.48
2023-03-04T02:55:09.642Z,10.43
2023-03-04T02:55:22.247Z,10.38
2023-03-04T02:55:36.459Z,10.50
2023-03-04T02:55:49.559Z,10.63
2023-03-04T02:56:02.321Z,11.00
2023-03-04T02:56:14.932Z,10.93